createdAt,value
2019-03-21T00:02:01.033Z,7.97
2019-03-21T00:04:29.955Z,5.17
2019-03-21T00:06:58.855Z,7.67
2019-03-21T00:09:27.799Z,7.75
2019-03-21T00:12:00.596Z,6.12
2019-03-21T00:14:48.701Z,9.28
2019-03-21T00:17:19.238Z,7.00
2019-03-21T00:19:48.564Z,8.28
2019-03-21T00:22:17.498Z,8.05
2019-03-21T00:24:47.427Z,6.83
2019-03-21T00:27:16.419Z,6.45
2019-03-21T00:29:45.317Z,10.60
2019-03-21T00:32:14.239Z,7.67
2019-03-21T00:34:43.143Z,9.58
2019-03-21T00:37:12.409Z,6.28
2019-03-21T00:39:41.373Z,6.50
2019-03-21T00:42:11.181Z,8.63
2019-03-21T00:44:40.075Z,7.90
2019-03-21T00:47:09.026Z,7.75
2019-03-21T00:49:37.921Z,6.72
2019-03-21T00:52:06.855Z,11.43
2019-03-21T00:54:35.706Z,7.53
2019-03-21T00:57:04.540Z,6.62
2019-03-21T00:59:33.449Z,8.73
2019-03-21T01:02:02.298Z,10.08
2019-03-21T01:04:31.238Z,5.05
2019-03-21T01:07:00.071Z,9.60
2019-03-21T01:09:28.906Z,5.80
2019-03-21T01:11:57.819Z,5.47
2019-03-21T01:14:30.080Z,5.35
2019-03-21T01:16:57.200Z,5.70
2019-03-21T01:19:26.055Z,8.95
2019-03-21T01:21:55.035Z,4.05
2019-03-21T01:24:23.905Z,7.60
2019-03-21T01:26:52.743Z,4.55
2019-03-21T01:29:21.598Z,6.00
2019-03-21T01:31:50.445Z,7.45
2019-03-21T01:34:19.353Z,8.70
2019-03-21T01:36:48.279Z,7.55
2019-03-21T01:39:17.260Z,6.65
2019-03-21T01:41:46.114Z,8.65
2019-03-21T01:44:15.017Z,8.65
2019-03-21T01:46:43.877Z,6.15
2019-03-21T01:49:12.766Z,9.00
2019-03-21T01:51:41.688Z,5.72
2019-03-21T01:54:10.583Z,4.75
2019-03-21T01:56:40.484Z,6.17
2019-03-21T01:59:09.390Z,6.60
2019-03-21T02:01:38.307Z,8.50
2019-03-21T02:04:07.219Z,6.28
2019-03-21T02:06:36.137Z,6.97
2019-03-21T02:09:06.192Z,5.28
2019-03-21T02:11:35.083Z,8.30
2019-03-21T02:14:03.996Z,12.70
2019-03-21T02:16:32.926Z,10.48
2019-03-21T02:19:01.864Z,9.23
2019-03-21T02:21:30.695Z,10.13
2019-03-21T02:23:59.549Z,11.90
2019-03-21T02:26:28.441Z,12.82
2019-03-21T02:28:57.285Z,10.70
2019-03-21T02:31:26.128Z,11.78
2019-03-21T02:33:55.071Z,9.10
2019-03-21T02:36:23.970Z,11.53
2019-03-21T02:38:52.910Z,10.68
2019-03-21T02:41:25.223Z,11.55
2019-03-21T02:43:52.573Z,7.72
2019-03-21T02:46:21.448Z,9.95
2019-03-21T02:48:50.381Z,9.93
2019-03-21T02:51:19.548Z,10.30
2019-03-21T02:53:48.456Z,9.65
2019-03-21T02:56:19.247Z,11.50
2019-03-21T02:58:48.305Z,7.97
2019-03-21T03:01:17.164Z,10.28
2019-03-21T03:03:46.068Z,7.60
2019-03-21T03:06:14.982Z,10.72
2019-03-21T03:08:43.828Z,10.30
2019-03-21T03:11:14.391Z,10.78
2019-03-21T03:13:45.075Z,12.28
2019-03-21T03:16:14.065Z,9.33
2019-03-21T03:18:43.026Z,9.48
2019-03-21T03:21:11.910Z,9.08
2019-03-21T03:23:40.864Z,7.53
2019-03-21T03:26:09.710Z,9.60
2019-03-21T03:28:42.884Z,11.48
2019-03-21T03:31:11.753Z,8.53
2019-03-21T03:33:40.675Z,11.33
2019-03-21T03:36:09.974Z,10.85
2019-03-21T03:38:38.881Z,9.38
2019-03-21T03:41:15.214Z,8.80
2019-03-21T03:43:44.192Z,11.43
2019-03-21T03:46:13.128Z,11.93
2019-03-21T03:48:42.120Z,14.00
2019-03-21T03:51:11.034Z,11.18
2019-03-21T03:53:42.498Z,11.03
2019-03-21T03:56:10.549Z,8.25
2019-03-21T03:58:41.037Z,14.10
2019-03-21T04:01:09.939Z,11.30
2019-03-21T04:03:38.846Z,9.38
2019-03-21T04:06:07.745Z,9.60
2019-03-21T04:08:36.594Z,9.60
2019-03-21T04:11:05.500Z,12.65
2019-03-21T04:13:34.431Z,11.03
2019-03-21T04:16:03.270Z,11.18
2019-03-21T04:18:32.287Z,12.70
2019-03-21T04:21:11.786Z,10.88
2019-03-21T04:23:40.720Z,9.70
2019-03-21T04:26:11.174Z,11.03
2019-03-21T04:28:40.584Z,11.18
2019-03-21T04:31:09.590Z,8.98
2019-03-21T04:33:38.652Z,10.43
2019-03-21T04:36:07.503Z,12.53
2019-03-21T04:38:36.473Z,14.23
2019-03-21T04:41:05.401Z,14.30
2019-03-21T04:43:34.304Z,17.20
2019-03-21T04:46:04.009Z,8.28
2019-03-21T04:48:33.039Z,14.43
2019-03-21T04:51:01.902Z,11.75
2019-03-21T04:53:30.849Z,10.53
2019-03-21T04:55:59.769Z,10.53
2019-03-21T04:58:28.617Z,10.25
2019-03-21T05:00:57.998Z,9.20
2019-03-21T05:03:27.608Z,12.43
2019-03-21T05:05:56.527Z,8.98
2019-03-21T05:08:25.502Z,13.13
2019-03-21T05:10:54.396Z,14.45
2019-03-21T05:13:23.254Z,14.68
2019-03-21T05:15:52.952Z,12.05
2019-03-21T05:18:23.433Z,12.07
2019-03-21T05:20:52.301Z,12.78
2019-03-21T05:23:21.585Z,10.70
2019-03-21T05:25:50.590Z,11.93
2019-03-21T05:28:19.604Z,16.37
2019-03-21T05:30:51.247Z,10.80
2019-03-21T05:33:20.163Z,12.55
2019-03-21T05:35:49.019Z,9.43
2019-03-21T05:38:19.063Z,9.70
2019-03-21T05:40:48.005Z,11.00
2019-03-21T05:43:21.406Z,9.80
2019-03-21T05:45:50.428Z,10.13
2019-03-21T05:48:19.322Z,9.28
2019-03-21T05:50:50.706Z,12.53
2019-03-21T05:53:21.225Z,9.03
2019-03-21T05:55:51.219Z,9.03
2019-03-21T05:58:20.321Z,7.53
2019-03-21T06:00:56.646Z,8.83
2019-03-21T06:03:27.117Z,10.48
2019-03-21T06:05:57.683Z,7.53
2019-03-21T06:08:28.286Z,9.33
2019-03-21T06:10:58.163Z,11.08
2019-03-21T06:13:27.153Z,9.30
2019-03-21T06:15:57.761Z,12.88
2019-03-21T06:18:31.189Z,8.70
2019-03-21T06:21:01.913Z,9.68
2019-03-21T06:23:32.517Z,11.25
2019-03-21T06:26:05.822Z,8.75
2019-03-21T06:28:34.637Z,7.58
2019-03-21T06:31:03.525Z,6.42
2019-03-21T06:33:32.450Z,10.53
2019-03-21T06:36:01.349Z,15.23
2019-03-21T06:38:30.188Z,7.50
2019-03-21T06:40:59.108Z,10.75
2019-03-21T06:43:28.002Z,6.28
2019-03-21T06:45:56.884Z,12.28
2019-03-21T06:48:25.792Z,6.53
2019-03-21T06:50:54.685Z,7.53
2019-03-21T06:53:23.531Z,7.58
2019-03-21T06:55:52.358Z,7.95
2019-03-21T06:58:21.210Z,9.58
2019-03-21T07:00:50.046Z,5.12
2019-03-21T07:03:18.973Z,10.58
2019-03-21T07:05:47.992Z,10.20
2019-03-21T07:08:16.880Z,4.62
2019-03-21T07:10:45.739Z,5.12
2019-03-21T07:13:14.571Z,7.05
2019-03-21T07:15:43.499Z,5.50
2019-03-21T07:18:12.334Z,5.55
2019-03-21T07:20:41.194Z,6.33
2019-03-21T07:23:10.081Z,7.17
2019-03-21T07:25:38.916Z,7.55
2019-03-21T07:28:07.752Z,7.17
2019-03-21T07:30:37.686Z,7.30
2019-03-21T07:33:06.583Z,8.00
2019-03-21T07:35:35.431Z,9.38
2019-03-21T07:38:04.324Z,8.83
2019-03-21T07:40:33.688Z,6.90
2019-03-21T07:43:02.507Z,9.33
2019-03-21T07:45:31.385Z,21.17
2019-03-21T07:48:00.285Z,19.32
2019-03-21T07:50:30.368Z,24.60
2019-03-21T07:52:59.294Z,16.60
2019-03-21T07:55:28.129Z,18.87
2019-03-21T07:57:59.337Z,16.97
2019-03-21T08:00:27.489Z,13.55
2019-03-21T08:02:56.421Z,18.17
2019-03-21T08:05:25.252Z,11.10
2019-03-21T08:07:54.101Z,15.80
2019-03-21T08:10:23.015Z,13.43
2019-03-21T08:12:51.921Z,16.97
2019-03-21T08:15:20.847Z,15.53
2019-03-21T08:17:49.835Z,15.25
2019-03-21T08:20:18.669Z,14.18
2019-03-21T08:22:47.571Z,16.50
2019-03-21T08:25:16.422Z,15.80
2019-03-21T08:27:45.273Z,17.10
2019-03-21T08:30:21.679Z,14.53
2019-03-21T08:32:50.506Z,14.07
2019-03-21T08:35:19.416Z,12.98
2019-03-21T08:37:48.334Z,13.65
2019-03-21T08:40:17.230Z,11.55
2019-03-21T08:42:46.136Z,8.13
2019-03-21T08:45:14.994Z,13.68
2019-03-21T08:47:43.847Z,16.55
2019-03-21T08:50:12.680Z,10.78
2019-03-21T08:52:41.600Z,9.20
2019-03-21T08:55:10.422Z,8.08
2019-03-21T08:57:39.284Z,10.63
2019-03-21T09:00:09.741Z,10.55
2019-03-21T09:02:38.577Z,9.68
2019-03-21T09:05:07.425Z,10.08
2019-03-21T09:07:36.353Z,12.45
2019-03-21T09:10:07.910Z,9.13
2019-03-21T09:12:36.379Z,10.53
2019-03-21T09:15:08.884Z,12.20
2019-03-21T09:17:37.872Z,8.33
2019-03-21T09:20:07.166Z,8.33
2019-03-21T09:22:35.995Z,7.40
2019-03-21T09:25:07.513Z,9.50
2019-03-21T09:27:36.330Z,8.43
2019-03-21T09:30:06.882Z,8.78
2019-03-21T09:32:35.870Z,6.65
2019-03-21T09:35:06.207Z,7.58
2019-03-21T09:37:35.043Z,6.67
2019-03-21T09:40:07.399Z,8.65
2019-03-21T09:42:37.377Z,5.85
2019-03-21T09:45:08.946Z,5.55
2019-03-21T09:47:37.849Z,6.30
2019-03-21T09:50:07.163Z,6.03
2019-03-21T09:52:36.013Z,6.50
2019-03-21T09:55:08.087Z,7.12
2019-03-21T09:57:37.009Z,8.43
2019-03-21T10:00:06.624Z,6.28
2019-03-21T10:02:35.538Z,6.65
2019-03-21T10:05:05.941Z,7.58
2019-03-21T10:07:34.865Z,7.60
2019-03-21T10:10:05.391Z,7.30
2019-03-21T10:12:35.347Z,7.70
2019-03-21T10:15:05.441Z,7.75
2019-03-21T10:17:34.282Z,6.55
2019-03-21T10:20:05.001Z,9.20
2019-03-21T10:22:33.973Z,11.85
2019-03-21T10:25:02.806Z,9.03
2019-03-21T10:27:31.645Z,7.47
2019-03-21T10:30:00.474Z,7.20
2019-03-21T10:32:29.317Z,7.62
2019-03-21T10:34:58.217Z,9.43
2019-03-21T10:37:27.049Z,7.00
2019-03-21T10:39:55.903Z,6.90
2019-03-21T10:42:24.886Z,9.88
2019-03-21T10:44:53.767Z,6.62
2019-03-21T10:47:22.603Z,114.72
2019-03-21T10:49:51.462Z,6.03
2019-03-21T10:52:20.498Z,10.53
2019-03-21T10:54:49.401Z,7.80
2019-03-21T10:57:18.224Z,10.05
2019-03-21T10:59:47.141Z,5.80
2019-03-21T11:02:16.009Z,8.18
2019-03-21T11:04:44.846Z,7.83
2019-03-21T11:07:13.328Z,12.00
2019-03-21T11:09:42.155Z,7.10
2019-03-21T11:12:11.000Z,6.83
2019-03-21T11:14:39.903Z,8.65
2019-03-21T11:17:08.751Z,7.92
2019-03-21T11:19:37.651Z,8.73
2019-03-21T11:22:06.842Z,8.50
2019-03-21T11:24:35.807Z,8.05
2019-03-21T11:27:04.717Z,7.00
2019-03-21T11:29:33.551Z,9.08
2019-03-21T11:32:02.410Z,11.10
2019-03-21T11:34:31.245Z,8.93
2019-03-21T11:37:00.163Z,8.80
2019-03-21T11:39:30.128Z,8.58
2019-03-21T11:41:59.092Z,17.00
2019-03-21T11:44:27.951Z,9.73
2019-03-21T11:46:56.859Z,9.85
2019-03-21T11:49:25.774Z,9.25
2019-03-21T11:51:54.657Z,12.33
2019-03-21T11:54:23.663Z,11.60
2019-03-21T11:56:52.511Z,10.50
2019-03-21T11:59:21.349Z,11.83
2019-03-21T12:01:50.339Z,10.82
2019-03-21T12:04:19.162Z,9.20
2019-03-21T12:06:48.023Z,11.53
2019-03-21T12:09:16.875Z,9.40
2019-03-21T12:11:45.778Z,13.30
2019-03-21T12:14:14.817Z,9.65
2019-03-21T12:16:43.681Z,8.03
2019-03-21T12:19:12.601Z,14.28
2019-03-21T12:21:41.494Z,9.53
2019-03-21T12:24:11.415Z,11.80
2019-03-21T12:26:40.400Z,9.23
2019-03-21T12:29:09.321Z,12.33
2019-03-21T12:31:38.313Z,10.60
2019-03-21T12:34:07.331Z,11.28
2019-03-21T12:36:36.221Z,10.72
2019-03-21T12:39:06.135Z,10.40
2019-03-21T12:41:34.956Z,10.20
2019-03-21T12:44:03.826Z,13.60
2019-03-21T12:46:32.668Z,16.52
2019-03-21T12:49:01.589Z,10.63
2019-03-21T12:51:30.515Z,14.43
2019-03-21T12:53:59.434Z,10.98
2019-03-21T12:56:28.295Z,12.18
2019-03-21T12:58:57.128Z,14.85
2019-03-21T13:01:26.044Z,14.53
2019-03-21T13:03:54.883Z,10.20
2019-03-21T13:06:23.737Z,15.98
2019-03-21T13:08:52.571Z,13.48
2019-03-21T13:11:21.421Z,11.45
2019-03-21T13:13:50.268Z,11.85
2019-03-21T13:16:19.195Z,14.47
2019-03-21T13:18:48.044Z,13.05
2019-03-21T13:21:16.966Z,15.55
2019-03-21T13:23:45.873Z,14.73
2019-03-21T13:26:14.728Z,13.78
2019-03-21T13:28:43.657Z,10.95
2019-03-21T13:31:13.849Z,12.55
2019-03-21T13:33:47.468Z,15.72
2019-03-21T13:36:16.387Z,14.15
2019-03-21T13:38:45.302Z,12.23
2019-03-21T13:41:14.215Z,14.98
2019-03-21T13:43:43.155Z,11.85
2019-03-21T13:46:12.092Z,11.05
2019-03-21T13:48:40.994Z,13.65
2019-03-21T13:51:09.916Z,16.60
2019-03-21T13:53:38.963Z,14.55
2019-03-21T13:56:08.031Z,13.00
2019-03-21T13:58:36.938Z,14.05
2019-03-21T14:01:05.940Z,11.57
2019-03-21T14:03:34.859Z,14.80
2019-03-21T14:06:03.693Z,14.90
2019-03-21T14:08:32.576Z,13.88
2019-03-21T14:11:02.556Z,12.70
2019-03-21T14:13:31.402Z,12.20
2019-03-21T14:16:00.280Z,19.80
2019-03-21T14:18:29.164Z,15.88
2019-03-21T14:20:58.128Z,14.80
2019-03-21T14:23:27.131Z,14.50
2019-03-21T14:25:55.962Z,17.25
2019-03-21T14:28:24.806Z,14.70
2019-03-21T14:30:53.636Z,15.53
2019-03-21T14:33:22.481Z,13.10
2019-03-21T14:35:51.321Z,20.57
2019-03-21T14:38:26.147Z,14.28
2019-03-21T14:40:50.904Z,16.67
2019-03-21T14:43:19.761Z,13.83
2019-03-21T14:45:48.682Z,16.10
2019-03-21T14:48:17.594Z,15.90
2019-03-21T14:50:46.544Z,11.73
2019-03-21T14:53:15.451Z,15.80
2019-03-21T14:55:47.760Z,16.85
2019-03-21T14:58:16.120Z,15.78
2019-03-21T15:00:44.963Z,14.35
2019-03-21T15:03:15.430Z,17.23
2019-03-21T15:05:44.320Z,18.82
2019-03-21T15:08:13.434Z,13.43
2019-03-21T15:10:42.378Z,12.98
2019-03-21T15:13:11.388Z,17.57
2019-03-21T15:15:40.306Z,16.05
2019-03-21T15:18:09.245Z,17.07
2019-03-21T15:20:38.187Z,17.12
2019-03-21T15:23:07.226Z,17.35
2019-03-21T15:25:36.337Z,15.65
2019-03-21T15:28:05.422Z,14.68
2019-03-21T15:30:34.332Z,15.98
2019-03-21T15:33:03.234Z,16.75
2019-03-21T15:35:32.250Z,14.83
2019-03-21T15:38:01.169Z,15.25
2019-03-21T15:40:30.207Z,15.08
2019-03-21T15:42:59.142Z,19.37
2019-03-21T15:45:28.063Z,23.05
2019-03-21T15:47:56.913Z,16.75
2019-03-21T15:50:29.706Z,13.22
2019-03-21T15:52:58.536Z,14.68
2019-03-21T15:55:27.424Z,15.43
2019-03-21T15:57:56.495Z,18.20
2019-03-21T16:00:36.316Z,16.27
2019-03-21T16:03:05.965Z,13.40
2019-03-21T16:05:35.205Z,13.55
2019-03-21T16:08:04.506Z,15.78
2019-03-21T16:10:33.733Z,19.82
2019-03-21T16:13:02.689Z,17.60
2019-03-21T16:15:31.622Z,16.90
2019-03-21T16:18:00.668Z,17.32
2019-03-21T16:20:29.619Z,14.33
2019-03-21T16:22:58.573Z,14.47
2019-03-21T16:25:27.500Z,18.42
2019-03-21T16:27:56.477Z,15.75
2019-03-21T16:30:25.460Z,17.50
2019-03-21T16:32:54.424Z,17.00
2019-03-21T16:35:23.273Z,18.60
2019-03-21T16:37:52.313Z,18.98
2019-03-21T16:40:21.200Z,18.35
2019-03-21T16:42:50.091Z,19.90
2019-03-21T16:45:21.110Z,22.80
2019-03-21T16:47:49.724Z,24.57
2019-03-21T16:50:18.584Z,18.73
2019-03-21T16:52:47.473Z,19.98
2019-03-21T16:55:16.389Z,22.95
2019-03-21T16:57:45.230Z,21.75
2019-03-21T17:00:17.596Z,21.97
2019-03-21T17:02:45.929Z,20.08
2019-03-21T17:05:14.879Z,20.23
2019-03-21T17:07:43.719Z,20.97
2019-03-21T17:10:13.301Z,19.10
2019-03-21T17:12:42.301Z,19.42
2019-03-21T17:15:11.556Z,23.42
2019-03-21T17:17:40.540Z,23.52
2019-03-21T17:20:10.551Z,19.67
2019-03-21T17:22:39.484Z,28.70
2019-03-21T17:25:08.329Z,20.52
2019-03-21T17:27:37.323Z,28.17
2019-03-21T17:30:07.030Z,27.82
2019-03-21T17:32:35.965Z,29.18
2019-03-21T17:35:05.595Z,29.00
2019-03-21T17:37:34.624Z,36.45
2019-03-21T17:40:05.254Z,31.48
2019-03-21T17:42:34.152Z,32.03
2019-03-21T17:45:07.156Z,28.65
2019-03-21T17:47:36.572Z,32.25
2019-03-21T17:50:06.109Z,33.18
2019-03-21T17:52:35.083Z,26.07
2019-03-21T17:55:05.050Z,24.18
2019-03-21T17:57:34.928Z,25.97
2019-03-21T18:00:11.646Z,35.52
2019-03-21T18:02:40.597Z,27.58
2019-03-21T18:05:09.589Z,27.65
2019-03-21T18:07:38.499Z,31.30
2019-03-21T18:10:08.980Z,26.42
2019-03-21T18:12:37.928Z,26.45
2019-03-21T18:15:06.917Z,33.10
2019-03-21T18:17:35.836Z,24.45
2019-03-21T18:20:05.778Z,30.80
2019-03-21T18:22:34.815Z,26.80
2019-03-21T18:25:04.955Z,28.75
2019-03-21T18:27:33.933Z,30.55
2019-03-21T18:30:03.533Z,27.27
2019-03-21T18:32:32.878Z,27.50
2019-03-21T18:35:01.784Z,25.15
2019-03-21T18:37:30.720Z,28.85
2019-03-21T18:39:59.823Z,26.33
2019-03-21T18:42:28.790Z,29.23
2019-03-21T18:44:57.708Z,31.42
2019-03-21T18:47:26.575Z,27.93
2019-03-21T18:49:55.739Z,28.25
2019-03-21T18:52:24.692Z,28.52
2019-03-21T18:55:05.380Z,27.00
2019-03-21T18:57:24.204Z,31.35
2019-03-21T18:59:53.123Z,29.20
2019-03-21T19:02:21.987Z,30.02
2019-03-21T19:04:50.916Z,33.38
2019-03-21T19:07:19.842Z,31.80
2019-03-21T19:09:48.814Z,35.08
2019-03-21T19:12:17.747Z,36.77
2019-03-21T19:14:46.674Z,30.27
2019-03-21T19:17:15.547Z,33.08
2019-03-21T19:19:44.470Z,33.53
2019-03-21T19:22:13.391Z,31.77
2019-03-21T19:24:42.411Z,33.00
2019-03-21T19:27:11.282Z,29.48
2019-03-21T19:29:40.516Z,32.08
2019-03-21T19:32:09.394Z,30.85
2019-03-21T19:34:38.269Z,35.00
2019-03-21T19:37:07.134Z,32.03
2019-03-21T19:39:36.143Z,34.53
2019-03-21T19:42:05.636Z,32.45
2019-03-21T19:45:00.364Z,31.37
2019-03-21T19:47:30.532Z,34.27
2019-03-21T19:49:59.616Z,29.95
2019-03-21T19:52:28.579Z,31.40
2019-03-21T19:54:57.549Z,34.10
2019-03-21T19:57:26.516Z,32.23
2019-03-21T19:59:55.558Z,32.58
2019-03-21T20:02:25.546Z,34.80
2019-03-21T20:04:54.589Z,38.98
2019-03-21T20:07:23.791Z,31.60
2019-03-21T20:09:52.824Z,38.88
2019-03-21T20:12:21.978Z,31.65
2019-03-21T20:14:51.107Z,30.00
2019-03-21T20:17:20.022Z,31.02
2019-03-21T20:19:48.946Z,32.73
2019-03-21T20:22:17.939Z,30.02
2019-03-21T20:24:47.072Z,30.82
2019-03-21T20:27:17.110Z,28.12
2019-03-21T20:29:46.076Z,29.50
2019-03-21T20:32:20.773Z,30.10
2019-03-21T20:34:47.317Z,30.23
2019-03-21T20:37:16.158Z,26.02
2019-03-21T20:39:46.100Z,30.17
2019-03-21T20:42:15.141Z,28.32
2019-03-21T20:59:04.589Z,27.75
2019-03-21T21:01:33.664Z,29.90
2019-03-21T21:04:02.643Z,30.25
2019-03-21T21:06:31.536Z,27.70
2019-03-21T21:09:00.597Z,27.75
2019-03-21T21:11:30.751Z,29.48
2019-03-21T21:13:59.913Z,27.65
2019-03-21T21:16:28.838Z,30.10
2019-03-21T21:18:57.774Z,29.80
2019-03-21T21:21:26.713Z,28.15
2019-03-21T21:23:55.700Z,27.32
2019-03-21T21:26:24.721Z,27.40
2019-03-21T21:28:53.665Z,27.98
2019-03-21T21:31:22.681Z,31.25
2019-03-21T21:33:51.669Z,28.10
2019-03-21T21:36:22.121Z,28.92
2019-03-21T21:38:51.359Z,30.82
2019-03-21T21:41:20.220Z,28.20
2019-03-21T21:43:49.234Z,27.93
2019-03-21T21:46:18.101Z,30.02
2019-03-21T21:48:47.077Z,26.35
2019-03-21T21:51:16.000Z,25.90
2019-03-21T21:53:44.908Z,28.23
